Time;durP1;ratioP1;P1;durP2;ratioP2;P2;SDS_P1;SDS_P2;PMS_P1;PMS_P2;Temp;Humidity;BMP_temperature;BMP_pressure;BME280_temperature;BME280_humidity;BME280_pressure;Samples;Min_cycle;Max_cycle;Signal;HPM_P1;HPM_P2
2020/12/03 00:00:32;;;;;;;35.23;22.07;;;3.70;99.90;;;;;;5071121;28;20228;-64
2020/12/03 00:03:02;;;;;;;35.13;21.80;;;3.80;99.90;;;;;;5070489;28;20229;-64
2020/12/03 00:05:29;;;;;;;36.93;22.10;;;3.80;99.90;;;;;;5071081;28;20211;-64
2020/12/03 00:07:56;;;;;;;36.07;22.30;;;3.80;99.90;;;;;;5074221;28;20209;-65
2020/12/03 00:10:23;;;;;;;37.10;23.07;;;3.70;99.90;;;;;;5074984;28;20227;-63
2020/12/03 00:13:02;;;;;;;35.70;22.07;;;3.80;99.90;;;;;;5074424;28;20231;-62
2020/12/03 00:15:29;;;;;;;35.67;21.77;;;3.60;99.90;;;;;;5074395;28;20240;-62
2020/12/03 00:17:56;;;;;;;39.17;23.33;;;3.60;99.90;;;;;;5073961;28;20209;-64
2020/12/03 00:20:23;;;;;;;36.93;23.23;;;3.50;99.90;;;;;;5074500;28;20225;-64
2020/12/03 00:22:49;;;;;;;36.77;22.90;;;3.50;99.90;;;;;;5075335;28;20624;-62
2020/12/03 00:25:15;;;;;;;38.33;22.40;;;3.50;99.90;;;;;;5074835;28;20220;-62
2020/12/03 00:27:48;;;;;;;36.17;22.90;;;3.30;99.90;;;;;;5075905;28;20555;-62
2020/12/03 00:30:15;;;;;;;39.13;22.77;;;3.30;99.90;;;;;;5074881;28;20276;-63
2020/12/03 00:32:42;;;;;;;38.97;23.00;;;3.70;99.90;;;;;;5074183;28;20197;-63
2020/12/03 00:35:08;;;;;;;34.83;21.67;;;3.40;99.90;;;;;;5073782;28;20205;-62
2020/12/03 00:37:34;;;;;;;36.27;21.30;;;3.50;99.90;;;;;;5073932;28;20680;-63
2020/12/03 00:40:00;;;;;;;36.87;21.87;;;3.50;99.90;;;;;;5073591;28;20227;-63
2020/12/03 00:42:27;;;;;;;36.60;21.97;;;3.60;99.90;;;;;;5073415;28;20673;-63
2020/12/03 00:44:53;;;;;;;33.50;21.43;;;3.60;99.90;;;;;;5073478;28;20205;-63
2020/12/03 00:47:19;;;;;;;36.60;21.47;;;3.60;99.90;;;;;;5073896;28;20236;-63
2020/12/03 00:49:46;;;;;;;34.63;21.20;;;3.70;99.90;;;;;;5073348;28;20262;-63
2020/12/03 00:52:13;;;;;;;186.13;122.33;;;3.70;99.90;;;;;;5073782;28;20212;-62
2020/12/03 00:54:39;;;;;;;36.97;22.27;;;3.70;99.90;;;;;;5073805;28;20217;-63
2020/12/03 00:57:07;;;;;;;37.17;22.40;;;3.70;99.90;;;;;;5074280;28;20209;-63
2020/12/03 00:59:33;;;;;;;32.93;20.93;;;3.70;99.90;;;;;;5074290;28;20209;-63
2020/12/03 01:02:00;;;;;;;33.07;20.70;;;3.70;99.90;;;;;;5074311;28;20217;-65
2020/12/03 01:04:26;;;;;;;41.50;22.33;;;3.60;99.90;;;;;;5073292;28;20229;-63
2020/12/03 01:06:53;;;;;;;39.17;22.10;;;3.50;99.90;;;;;;5074032;28;20835;-64
2020/12/03 01:09:19;;;;;;;38.60;22.80;;;3.40;99.90;;;;;;5073195;28;20701;-63
2020/12/03 01:11:46;;;;;;;38.43;22.73;;;3.30;99.90;;;;;;5073769;28;20236;-63
2020/12/03 01:14:12;;;;;;;36.77;22.27;;;3.00;99.90;;;;;;5072803;28;20204;-63
2020/12/03 01:16:38;;;;;;;35.47;20.67;;;3.00;99.90;;;;;;5072676;28;20232;-63
2020/12/03 01:19:04;;;;;;;36.00;21.67;;;2.90;99.90;;;;;;5072739;28;20477;-62
2020/12/03 01:21:31;;;;;;;36.67;21.83;;;2.90;99.90;;;;;;5073592;28;20233;-63
2020/12/03 01:23:58;;;;;;;35.07;22.53;;;2.80;99.90;;;;;;5073164;28;20236;-62
2020/12/03 01:26:25;;;;;;;37.33;22.50;;;2.70;99.90;;;;;;5073698;28;20213;-64
2020/12/03 01:28:51;;;;;;;37.23;22.23;;;2.90;99.90;;;;;;5072979;28;20628;-63
2020/12/03 01:31:17;;;;;;;37.23;21.87;;;3.00;99.90;;;;;;5073376;28;20235;-62
2020/12/03 01:33:43;;;;;;;37.43;22.83;;;3.10;99.90;;;;;;5072982;28;20204;-62
2020/12/03 01:36:12;;;;;;;35.33;21.40;;;3.20;99.90;;;;;;5073762;28;20270;-62
2020/12/03 01:38:39;;;;;;;36.00;21.40;;;3.20;99.90;;;;;;5073441;28;20205;-63
2020/12/03 01:41:06;;;;;;;34.97;21.73;;;3.20;99.90;;;;;;5073402;28;20228;-63
2020/12/03 01:43:33;;;;;;;39.27;22.63;;;3.30;99.90;;;;;;5073298;28;20220;-62
2020/12/03 01:46:00;;;;;;;37.57;22.17;;;3.30;99.90;;;;;;5073204;28;20201;-63
2020/12/03 01:48:37;;;;;;;33.77;21.20;;;3.50;99.90;;;;;;5072483;28;20219;-61
2020/12/03 01:51:06;;;;;;;35.97;22.20;;;3.50;99.90;;;;;;5072582;28;20220;-62
2020/12/03 01:53:32;;;;;;;33.80;21.40;;;3.50;99.90;;;;;;5072030;28;20212;-63
2020/12/03 01:56:05;;;;;;;36.17;21.50;;;3.40;99.90;;;;;;5072363;28;20258;-63
2020/12/03 01:58:40;;;;;;;35.87;22.73;;;3.40;99.90;;;;;;5071855;28;20215;-63
2020/12/03 02:01:07;;;;;;;34.83;21.43;;;3.10;99.90;;;;;;5072054;28;20251;-63
2020/12/03 02:03:34;;;;;;;37.50;21.60;;;2.90;99.90;;;;;;5071747;28;20225;-63
2020/12/03 02:06:00;;;;;;;35.30;22.57;;;2.60;99.90;;;;;;5072107;28;20215;-63
2020/12/03 02:08:26;;;;;;;33.37;21.30;;;2.50;99.90;;;;;;5071699;28;20205;-63
2020/12/03 02:10:53;;;;;;;36.03;21.90;;;2.40;99.90;;;;;;5071821;28;20376;-63
2020/12/03 02:13:19;;;;;;;37.40;22.50;;;2.40;99.90;;;;;;5071737;28;20209;-63
2020/12/03 02:15:46;;;;;;;37.37;21.93;;;2.40;99.90;;;;;;5071518;28;20228;-63
2020/12/03 02:18:12;;;;;;;33.67;21.03;;;2.40;99.90;;;;;;5071673;28;20255;-63
2020/12/03 02:20:39;;;;;;;32.90;20.43;;;2.30;99.90;;;;;;5071400;28;20225;-63
2020/12/03 02:23:11;;;;;;;39.10;23.23;;;2.30;99.90;;;;;;5071724;28;20217;-63
2020/12/03 02:25:37;;;;;;;37.13;23.00;;;2.20;99.90;;;;;;5071276;28;20205;-64
2020/12/03 02:28:05;;;;;;;40.93;24.07;;;2.00;99.90;;;;;;5071197;28;20216;-62
2020/12/03 02:30:32;;;;;;;37.90;23.30;;;2.00;99.90;;;;;;5071174;28;20720;-63
2020/12/03 02:32:58;;;;;;;41.37;22.87;;;2.00;99.90;;;;;;5071521;28;20216;-61
2020/12/03 02:35:24;;;;;;;36.30;22.20;;;2.00;99.90;;;;;;5071243;28;20205;-62
2020/12/03 02:37:51;;;;;;;41.60;22.10;;;2.00;99.90;;;;;;5071127;28;20681;-62
2020/12/03 02:40:17;;;;;;;38.43;22.13;;;2.00;99.90;;;;;;5071331;28;20228;-63
2020/12/03 02:42:44;;;;;;;40.03;22.30;;;1.80;99.90;;;;;;5071183;28;20209;-63
2020/12/03 02:45:10;;;;;;;35.40;21.07;;;1.80;99.90;;;;;;5070928;28;20282;-63
2020/12/03 02:47:36;;;;;;;36.20;21.37;;;1.70;99.90;;;;;;5071503;28;20255;-63
2020/12/03 02:50:03;;;;;;;34.73;21.53;;;1.60;99.90;;;;;;5071152;28;20228;-64
2020/12/03 02:52:30;;;;;;;35.83;20.43;;;1.60;99.90;;;;;;5071197;28;20204;-63
2020/12/03 02:54:57;;;;;;;39.73;22.40;;;1.60;99.90;;;;;;5068331;23;20237;-64
2020/12/03 02:57:23;;;;;;;35.63;22.93;;;1.70;99.90;;;;;;5036046;28;20210;-64
2020/12/03 02:59:50;;;;;;;36.77;21.50;;;1.70;99.90;;;;;;5035957;28;20221;-63
2020/12/03 03:02:16;;;;;;;43.57;23.97;;;1.80;99.90;;;;;;5034461;28;20217;-63
2020/12/03 03:04:43;;;;;;;38.63;22.83;;;1.90;99.90;;;;;;5031276;28;20230;-63
2020/12/03 03:07:09;;;;;;;36.80;21.67;;;2.00;99.90;;;;;;5031003;28;20240;-63
2020/12/03 03:09:35;;;;;;;39.87;23.00;;;2.10;99.90;;;;;;5030862;28;20202;-63
2020/12/03 03:12:02;;;;;;;40.40;22.70;;;2.00;99.90;;;;;;5031063;28;20676;-63
2020/12/03 03:14:28;;;;;;;40.53;22.70;;;2.00;99.90;;;;;;5030460;28;20226;-64
2020/12/03 03:16:55;;;;;;;39.93;22.77;;;2.10;99.90;;;;;;5030834;28;20206;-63
2020/12/03 03:19:21;;;;;;;37.50;21.17;;;2.10;99.90;;;;;;5030763;28;20210;-64
2020/12/03 03:21:47;;;;;;;38.37;20.93;;;2.00;99.90;;;;;;5030647;28;20583;-64
2020/12/03 03:24:14;;;;;;;38.40;22.70;;;2.00;99.90;;;;;;5030100;28;20226;-63
2020/12/03 03:26:40;;;;;;;39.27;21.73;;;1.90;99.90;;;;;;5030772;28;20251;-64
2020/12/03 03:29:08;;;;;;;39.73;22.00;;;1.90;99.90;;;;;;5030340;28;20313;-64
2020/12/03 03:31:35;;;;;;;37.70;21.83;;;2.00;99.90;;;;;;5030530;28;20202;-64
2020/12/03 03:34:01;;;;;;;40.67;22.50;;;2.00;99.90;;;;;;5030301;28;20705;-64
2020/12/03 03:36:29;;;;;;;38.60;22.40;;;2.00;99.90;;;;;;5030512;28;20209;-64
2020/12/03 03:38:55;;;;;;;39.97;20.97;;;2.10;99.90;;;;;;5030377;28;20206;-64
2020/12/03 03:41:21;;;;;;;39.03;21.70;;;2.10;99.90;;;;;;5032756;28;20673;-64
2020/12/03 03:43:47;;;;;;;38.47;23.17;;;2.10;99.90;;;;;;5034145;28;20395;-64
2020/12/03 03:46:14;;;;;;;37.30;22.23;;;2.00;99.90;;;;;;5034674;28;20210;-64
2020/12/03 03:48:41;;;;;;;40.93;22.93;;;2.00;99.90;;;;;;5034211;28;20213;-64
2020/12/03 03:51:07;;;;;;;39.47;21.83;;;2.10;99.90;;;;;;5034367;28;20624;-64
2020/12/03 03:53:34;;;;;;;37.50;22.33;;;2.30;99.90;;;;;;5033882;28;20209;-64
2020/12/03 03:56:00;;;;;;;37.13;21.57;;;2.50;99.90;;;;;;5034301;28;20581;-65
2020/12/03 03:58:27;;;;;;;40.33;23.20;;;2.70;99.90;;;;;;5033842;28;20237;-64
2020/12/03 04:00:54;;;;;;;37.73;22.20;;;2.70;99.90;;;;;;5034258;28;20658;-64
2020/12/03 04:03:22;;;;;;;40.43;22.67;;;2.90;99.90;;;;;;5033988;28;20724;-63
2020/12/03 04:05:51;;;;;;;37.40;21.70;;;3.00;99.90;;;;;;5034199;28;20214;-64
2020/12/03 04:08:18;;;;;;;43.20;23.80;;;3.20;99.90;;;;;;5034207;28;20268;-64
2020/12/03 04:10:45;;;;;;;38.73;22.67;;;3.30;99.90;;;;;;5034274;28;20210;-64
2020/12/03 04:13:11;;;;;;;37.40;21.13;;;3.40;99.90;;;;;;5034047;28;20693;-63
2020/12/03 04:15:38;;;;;;;34.83;21.03;;;3.30;99.90;;;;;;5033547;28;20544;-64
2020/12/03 04:18:05;;;;;;;38.57;22.43;;;3.30;99.90;;;;;;5033640;28;20218;-64
2020/12/03 04:20:33;;;;;;;37.03;21.63;;;3.40;99.90;;;;;;5033770;28;20260;-64
2020/12/03 04:22:59;;;;;;;35.70;21.57;;;3.40;99.90;;;;;;5033849;28;20226;-64
2020/12/03 04:25:25;;;;;;;38.93;22.33;;;3.50;99.90;;;;;;5033495;28;20230;-64
2020/12/03 04:27:51;;;;;;;34.53;20.67;;;3.70;99.90;;;;;;5033356;28;20268;-64
2020/12/03 04:30:17;;;;;;;36.73;20.73;;;3.80;99.90;;;;;;5033614;28;20214;-64
2020/12/03 04:32:44;;;;;;;34.00;20.10;;;3.90;99.90;;;;;;5033500;28;20263;-64
2020/12/03 04:35:11;;;;;;;33.03;19.90;;;4.00;99.90;;;;;;5033339;28;20222;-64
2020/12/03 04:37:38;;;;;;;34.07;20.50;;;4.00;99.90;;;;;;5033200;28;20352;-64
2020/12/03 04:40:08;;;;;;;35.70;20.27;;;4.10;99.90;;;;;;5033307;28;20210;-64
2020/12/03 04:42:36;;;;;;;33.73;19.53;;;4.20;99.90;;;;;;5033413;28;20674;-64
2020/12/03 04:45:12;;;;;;;33.63;19.60;;;4.20;99.90;;;;;;5032895;28;20659;-65
2020/12/03 04:47:50;;;;;;;32.20;19.43;;;4.30;99.90;;;;;;5033440;28;20210;-66
2020/12/03 04:50:29;;;;;;;39.80;23.80;;;4.20;99.90;;;;;;5033584;28;20218;-65
2020/12/03 04:53:08;;;;;;;34.10;21.17;;;4.20;99.90;;;;;;5033193;28;20661;-64
2020/12/03 04:55:44;;;;;;;35.90;21.23;;;4.20;99.90;;;;;;5032708;28;20266;-64
2020/12/03 04:58:20;;;;;;;34.33;19.60;;;4.20;99.90;;;;;;5033395;28;20206;-64
2020/12/03 05:00:54;;;;;;;35.23;21.20;;;4.20;99.90;;;;;;5033435;28;20543;-64
2020/12/03 05:03:58;;;;;;;36.00;21.80;;;4.10;99.90;;;;;;5032911;28;20233;-64
2020/12/03 05:06:41;;;;;;;31.70;19.83;;;4.10;99.90;;;;;;5033295;28;20210;-64
2020/12/03 05:09:16;;;;;;;33.57;19.90;;;4.00;99.90;;;;;;5032860;28;20210;-64
2020/12/03 05:11:45;;;;;;;39.80;22.03;;;4.10;99.90;;;;;;5033002;28;20210;-64
2020/12/03 05:14:21;;;;;;;38.93;21.73;;;4.10;99.90;;;;;;5032456;28;20234;-64
2020/12/03 05:16:55;;;;;;;36.00;21.63;;;4.20;99.90;;;;;;5033127;28;20213;-64
2020/12/03 05:19:36;;;;;;;32.80;20.63;;;4.10;99.90;;;;;;5032591;28;20692;-64
2020/12/03 05:22:15;;;;;;;35.97;20.77;;;4.00;99.90;;;;;;5032712;28;20620;-64
2020/12/03 05:24:42;;;;;;;35.67;21.13;;;3.90;99.90;;;;;;5032305;28;20229;-64
2020/12/03 05:27:18;;;;;;;37.07;20.13;;;3.80;99.90;;;;;;5032652;28;20209;-64
2020/12/03 05:29:45;;;;;;;38.87;21.27;;;3.70;99.90;;;;;;5032788;28;20285;-65
2020/12/03 05:32:11;;;;;;;34.37;21.30;;;3.80;99.90;;;;;;5032715;28;20552;-64
2020/12/03 05:34:38;;;;;;;35.63;21.77;;;3.70;99.90;;;;;;5032211;28;20218;-64
2020/12/03 05:37:11;;;;;;;38.87;22.33;;;3.80;99.90;;;;;;5032870;28;20206;-65
2020/12/03 05:39:40;;;;;;;37.23;21.80;;;3.90;99.90;;;;;;5032745;28;20245;-65
2020/12/03 05:42:12;;;;;;;41.07;23.67;;;3.90;99.90;;;;;;5032577;28;20221;-65
2020/12/03 05:44:41;;;;;;;36.17;21.33;;;3.80;99.90;;;;;;5031827;28;20257;-65
2020/12/03 05:47:21;;;;;;;34.23;21.27;;;3.70;99.90;;;;;;5032358;28;20300;-65
2020/12/03 05:49:48;;;;;;;35.57;20.67;;;3.60;99.90;;;;;;5031858;28;20210;-65
2020/12/03 05:52:17;;;;;;;37.33;22.00;;;3.60;99.90;;;;;;5032312;28;20221;-65
2020/12/03 05:54:58;;;;;;;34.03;20.13;;;3.40;99.90;;;;;;5031596;28;20619;-65
2020/12/03 05:57:29;;;;;;;39.13;22.07;;;3.20;99.90;;;;;;5031906;28;20700;-65
2020/12/03 06:00:25;;;;;;;50.53;27.60;;;3.00;99.90;;;;;;5031750;28;20264;-65
2020/12/03 06:03:20;;;;;;;39.37;22.60;;;3.00;99.90;;;;;;5031287;28;20649;-65
2020/12/03 06:05:57;;;;;;;48.37;27.70;;;3.10;99.90;;;;;;5031510;28;20217;-65
2020/12/03 06:08:39;;;;;;;42.37;25.07;;;3.00;99.90;;;;;;5031102;28;20206;-65
2020/12/03 06:11:34;;;;;;;39.37;21.23;;;3.00;99.90;;;;;;5031900;28;20214;-65
2020/12/03 06:14:14;;;;;;;32.70;19.43;;;3.10;99.90;;;;;;5028696;28;20222;-65
2020/12/03 06:16:45;;;;;;;38.53;20.80;;;3.10;99.90;;;;;;5031580;28;20210;-64
2020/12/03 06:19:31;;;;;;;37.70;20.80;;;2.80;99.90;;;;;;5031268;28;20202;-65
2020/12/03 06:22:10;;;;;;;34.67;20.93;;;2.60;99.90;;;;;;5031825;28;20680;-64
2020/12/03 06:24:57;;;;;;;35.83;20.67;;;2.70;99.90;;;;;;5030908;28;20249;-64
2020/12/03 06:27:49;;;;;;;34.13;20.73;;;2.60;99.90;;;;;;5031504;28;20213;-64
2020/12/03 06:30:23;;;;;;;34.30;19.47;;;2.60;99.90;;;;;;5031523;28;20210;-64
2020/12/03 06:33:17;;;;;;;33.67;19.63;;;2.40;99.90;;;;;;5031273;28;20210;-64
2020/12/03 06:35:49;;;;;;;34.17;20.50;;;2.60;99.90;;;;;;5030815;28;20234;-64
2020/12/03 06:38:23;;;;;;;33.70;19.37;;;2.80;99.90;;;;;;5031359;28;20210;-64
2020/12/03 06:40:57;;;;;;;33.20;19.27;;;2.80;99.90;;;;;;5031267;28;20205;-64
2020/12/03 06:43:29;;;;;;;35.83;19.40;;;2.70;99.90;;;;;;5031034;28;20249;-65
2020/12/03 06:46:16;;;;;;;37.80;20.50;;;2.70;99.90;;;;;;5031430;28;20207;-64
2020/12/03 06:49:11;;;;;;;35.67;20.00;;;2.60;99.90;;;;;;5030848;28;20202;-64
2020/12/03 06:52:16;;;;;;;30.20;17.73;;;2.70;99.90;;;;;;5031088;28;20206;-65
2020/12/03 06:54:54;;;;;;;33.63;18.13;;;2.60;99.90;;;;;;4969119;28;20266;-64
2020/12/03 06:57:53;;;;;;;33.97;19.73;;;2.50;99.90;;;;;;5021111;28;20218;-64
2020/12/03 07:00:46;;;;;;;37.27;20.13;;;2.40;99.90;;;;;;5030667;28;20681;-64
2020/12/03 07:03:56;;;;;;;32.97;19.47;;;2.50;99.90;;;;;;5030695;28;20704;-64
2020/12/03 07:06:57;;;;;;;31.83;18.20;;;2.70;99.90;;;;;;4969288;28;20212;-64
2020/12/03 07:09:49;;;;;;;32.13;18.80;;;2.90;99.90;;;;;;5030557;28;20213;-64
2020/12/03 07:12:27;;;;;;;31.70;17.10;;;3.00;99.90;;;;;;5030782;28;20206;-64
2020/12/03 07:15:46;;;;;;;23.07;14.23;;;3.00;99.90;;;;;;5029357;28;20222;-64
2020/12/03 07:18:50;;;;;;;29.30;16.90;;;3.20;99.90;;;;;;5030266;28;20670;-64
2020/12/03 07:21:43;;;;;;;30.87;17.87;;;3.40;99.90;;;;;;5030392;28;20206;-64
2020/12/03 07:24:14;;;;;;;27.63;16.03;;;3.50;99.90;;;;;;5030190;28;20284;-64
2020/12/03 07:26:53;;;;;;;27.53;16.00;;;3.60;99.90;;;;;;5030811;28;20305;-64
2020/12/03 07:29:25;;;;;;;28.07;16.83;;;3.70;99.90;;;;;;5030388;28;20585;-65
2020/12/03 07:31:57;;;;;;;24.60;15.47;;;3.80;99.90;;;;;;5030355;28;20206;-65
2020/12/03 07:34:30;;;;;;;29.10;16.40;;;3.70;99.90;;;;;;5030233;28;20230;-65
2020/12/03 07:37:02;;;;;;;29.30;17.10;;;3.50;99.90;;;;;;5030688;28;20209;-64
2020/12/03 07:39:33;;;;;;;29.03;16.60;;;3.50;99.90;;;;;;5030318;28;20237;-64
2020/12/03 07:42:03;;;;;;;28.30;17.33;;;3.30;99.90;;;;;;5030554;28;20206;-63
2020/12/03 07:44:37;;;;;;;32.63;18.07;;;3.20;99.90;;;;;;5029796;28;20237;-64
2020/12/03 07:47:24;;;;;;;26.60;17.07;;;3.20;99.90;;;;;;5030297;28;20674;-64
2020/12/03 07:49:52;;;;;;;28.13;16.67;;;3.10;99.90;;;;;;5030424;28;20213;-64
2020/12/03 07:52:27;;;;;;;27.63;15.67;;;3.20;99.90;;;;;;5030320;28;20263;-64
2020/12/03 07:54:53;;;;;;;23.67;14.43;;;3.50;99.90;;;;;;5029663;28;20225;-64
2020/12/03 07:57:25;;;;;;;22.60;13.93;;;3.70;99.90;;;;;;5030283;28;20233;-64
2020/12/03 07:59:51;;;;;;;20.87;12.47;;;4.00;99.90;;;;;;5030293;28;20207;-65
2020/12/03 08:02:57;;;;;;;18.27;12.23;;;4.30;99.90;;;;;;5030708;28;20233;-65
2020/12/03 08:05:48;;;;;;;18.70;11.40;;;4.50;99.90;;;;;;5024784;28;20245;-65
2020/12/03 08:08:33;;;;;;;19.13;12.17;;;4.70;99.90;;;;;;5029975;28;20206;-65
2020/12/03 08:11:00;;;;;;;17.60;10.97;;;4.90;99.90;;;;;;5030172;28;20210;-65
2020/12/03 08:13:29;;;;;;;21.07;11.77;;;5.10;99.90;;;;;;5029504;28;20210;-65
2020/12/03 08:15:57;;;;;;;15.77;10.60;;;5.20;99.90;;;;;;5030217;28;20221;-65
2020/12/03 08:18:38;;;;;;;15.50;9.63;;;5.40;99.90;;;;;;5029986;28;20210;-65
2020/12/03 08:21:05;;;;;;;15.87;10.17;;;5.50;99.90;;;;;;5030224;28;20225;-65
2020/12/03 08:23:32;;;;;;;15.17;10.60;;;5.60;99.90;;;;;;5029513;28;20234;-65
2020/12/03 08:25:58;;;;;;;15.07;10.20;;;5.70;99.90;;;;;;5030468;28;20210;-65
2020/12/03 08:28:27;;;;;;;15.07;10.67;;;5.80;99.90;;;;;;5033442;28;20210;-65
2020/12/03 08:30:53;;;;;;;21.13;11.20;;;5.90;99.90;;;;;;5033864;28;20209;-65
2020/12/03 08:33:29;;;;;;;17.57;10.77;;;6.00;99.90;;;;;;5033503;28;20206;-65
2020/12/03 08:35:57;;;;;;;15.30;10.03;;;6.10;99.90;;;;;;5033253;28;20663;-65
2020/12/03 08:38:27;;;;;;;15.63;9.70;;;6.20;99.90;;;;;;5033461;28;20255;-65
2020/12/03 08:40:55;;;;;;;14.67;10.27;;;6.30;99.90;;;;;;5033373;28;20210;-65
2020/12/03 08:43:23;;;;;;;14.00;9.17;;;6.30;99.90;;;;;;5033549;28;20209;-64
2020/12/03 08:45:55;;;;;;;16.23;9.90;;;6.40;99.90;;;;;;5034094;28;20210;-65
2020/12/03 08:48:26;;;;;;;15.87;9.43;;;6.50;99.90;;;;;;5037954;28;20230;-65
2020/12/03 08:50:57;;;;;;;14.33;9.20;;;6.50;99.90;;;;;;5037857;28;20386;-64
2020/12/03 08:53:26;;;;;;;12.27;9.50;;;6.60;99.90;;;;;;5036898;28;20214;-66
2020/12/03 08:55:52;;;;;;;20.10;13.10;;;6.60;99.90;;;;;;5057430;22;20265;-62
2020/12/03 08:58:22;;;;;;;13.60;9.73;;;6.70;99.90;;;;;;5033470;28;20249;-61
2020/12/03 09:00:50;;;;;;;12.57;9.27;;;6.80;99.90;;;;;;5033635;28;20210;-61
2020/12/03 09:03:21;;;;;;;12.87;9.27;;;6.90;99.30;;;;;;5033399;28;20654;-62
2020/12/03 09:05:50;;;;;;;12.37;8.57;;;7.00;99.00;;;;;;5032788;28;20257;-61
2020/12/03 09:08:19;;;;;;;11.33;8.40;;;7.20;98.90;;;;;;5033250;28;20210;-61
2020/12/03 09:10:47;;;;;;;11.17;8.03;;;7.20;98.40;;;;;;5033131;28;20206;-62
2020/12/03 09:13:17;;;;;;;14.33;8.40;;;7.30;98.10;;;;;;5033180;28;20748;-62
2020/12/03 09:15:45;;;;;;;14.23;9.73;;;7.40;98.00;;;;;;5033074;28;20234;-62
2020/12/03 09:18:11;;;;;;;16.53;10.13;;;7.60;98.10;;;;;;5032522;28;20202;-62
2020/12/03 09:20:42;;;;;;;16.07;9.13;;;7.70;97.60;;;;;;5032912;28;20210;-61
2020/12/03 09:23:14;;;;;;;13.27;8.50;;;7.70;97.50;;;;;;5032860;28;20230;-61
2020/12/03 09:25:41;;;;;;;12.10;8.67;;;8.00;97.00;;;;;;5032604;28;20230;-62
2020/12/03 09:28:07;;;;;;;12.67;9.20;;;8.10;96.60;;;;;;5032793;28;20210;-62
2020/12/03 09:30:34;;;;;;;14.13;9.37;;;8.20;96.30;;;;;;5033046;28;20245;-61
2020/12/03 09:33:02;;;;;;;11.93;8.57;;;8.30;96.20;;;;;;5032534;28;20214;-62
2020/12/03 09:35:30;;;;;;;12.47;9.07;;;8.30;95.90;;;;;;5032659;28;20222;-62
2020/12/03 09:37:59;;;;;;;14.83;9.03;;;8.10;95.90;;;;;;5031464;28;20658;-62
2020/12/03 09:40:28;;;;;;;14.03;9.37;;;7.90;96.00;;;;;;5032629;28;20213;-62
2020/12/03 09:42:55;;;;;;;13.77;9.80;;;7.80;96.00;;;;;;5032513;28;20214;-62
2020/12/03 09:45:23;;;;;;;15.60;9.67;;;7.70;96.30;;;;;;5031927;28;20284;-62
2020/12/03 09:47:50;;;;;;;15.77;10.10;;;7.70;96.50;;;;;;5032147;28;20210;-62
2020/12/03 09:50:20;;;;;;;17.67;12.20;;;7.70;96.70;;;;;;5032484;28;20206;-62
2020/12/03 09:52:47;;;;;;;15.33;10.80;;;7.80;96.70;;;;;;5032599;28;20221;-62
2020/12/03 09:55:15;;;;;;;14.83;10.43;;;7.70;96.60;;;;;;5032081;28;20246;-61
2020/12/03 09:57:52;;;;;;;14.73;10.27;;;7.80;97.00;;;;;;5032135;28;20211;-61
2020/12/03 10:00:25;;;;;;;16.13;10.70;;;7.80;96.90;;;;;;5032380;28;20313;-61
2020/12/03 10:03:27;;;;;;;13.30;9.97;;;7.90;97.00;;;;;;5032287;28;20202;-62
2020/12/03 10:06:02;;;;;;;15.43;10.20;;;7.90;96.40;;;;;;5000947;28;20229;-62
2020/12/03 10:08:40;;;;;;;14.47;9.47;;;7.80;96.50;;;;;;5032131;28;20464;-62
2020/12/03 10:11:30;;;;;;;13.00;9.67;;;7.80;96.60;;;;;;5032508;28;20210;-62
2020/12/03 10:14:35;;;;;;;14.93;10.93;;;7.90;96.60;;;;;;5031937;28;20649;-62
2020/12/03 10:17:05;;;;;;;13.30;9.57;;;8.00;96.10;;;;;;5029394;28;20696;-62
2020/12/03 10:19:35;;;;;;;12.90;9.03;;;8.00;96.10;;;;;;5031804;28;20248;-61
2020/12/03 10:22:05;;;;;;;12.27;8.90;;;7.90;95.70;;;;;;5032000;28;20214;-62
2020/12/03 10:24:39;;;;;;;13.50;9.03;;;7.90;95.50;;;;;;5031394;28;20226;-63
2020/12/03 10:27:09;;;;;;;14.30;9.47;;;7.90;95.50;;;;;;5032522;28;20228;-61
2020/12/03 10:29:45;;;;;;;17.10;11.10;;;7.80;95.60;;;;;;5032547;28;20552;-62
2020/12/03 10:32:14;;;;;;;16.60;11.13;;;7.90;95.90;;;;;;5032839;28;20205;-62
2020/12/03 10:34:43;;;;;;;18.33;12.17;;;8.00;96.20;;;;;;5032322;28;20724;-61
2020/12/03 10:37:19;;;;;;;21.17;12.70;;;8.20;96.30;;;;;;5032494;28;20728;-62
2020/12/03 10:39:51;;;;;;;16.07;10.90;;;8.00;96.50;;;;;;5032196;28;20238;-62
2020/12/03 10:42:26;;;;;;;16.73;10.80;;;8.00;96.40;;;;;;5032611;28;20458;-61
2020/12/03 10:45:05;;;;;;;14.07;11.00;;;7.50;96.30;;;;;;5032062;28;20241;-61
2020/12/03 10:47:42;;;;;;;17.30;11.03;;;7.40;96.90;;;;;;5031928;28;20214;-62
2020/12/03 10:50:11;;;;;;;14.97;11.87;;;7.10;97.30;;;;;;5032217;28;20296;-62
2020/12/03 10:52:39;;;;;;;16.80;10.73;;;7.10;97.50;;;;;;5031744;28;20206;-61
2020/12/03 10:55:05;;;;;;;17.67;9.93;;;6.80;97.30;;;;;;5031188;28;20234;-62
2020/12/03 10:57:33;;;;;;;16.80;11.43;;;6.80;97.60;;;;;;5031822;28;20236;-61
2020/12/03 11:00:02;;;;;;;18.37;11.30;;;6.80;97.90;;;;;;5031245;28;20201;-62
2020/12/03 11:02:36;;;;;;;19.57;12.53;;;6.70;97.90;;;;;;5031012;28;20696;-61
2020/12/03 11:05:06;;;;;;;18.23;12.57;;;6.60;98.60;;;;;;5031074;28;20233;-62
2020/12/03 11:07:33;;;;;;;17.40;12.17;;;6.70;98.80;;;;;;5031138;28;20293;-62
2020/12/03 11:10:01;;;;;;;19.37;12.30;;;7.10;98.60;;;;;;5031097;28;20210;-61
2020/12/03 11:12:27;;;;;;;22.13;14.53;;;7.40;98.10;;;;;;5031243;28;20210;-62
2020/12/03 11:14:54;;;;;;;12.03;8.73;;;7.70;97.70;;;;;;5031045;28;20233;-61
2020/12/03 11:17:46;;;;;;;12.07;8.53;;;7.90;96.10;;;;;;5031307;28;20280;-62
2020/12/03 11:20:14;;;;;;;10.33;7.23;;;8.20;95.50;;;;;;5031133;28;20202;-62
2020/12/03 11:23:04;;;;;;;10.90;7.73;;;8.50;94.30;;;;;;5031213;28;20263;-61
2020/12/03 11:25:31;;;;;;;14.37;8.77;;;8.70;93.80;;;;;;5030426;28;20237;-61
2020/12/03 11:28:03;;;;;;;11.17;7.60;;;8.90;93.30;;;;;;5030470;28;20206;-61
2020/12/03 11:30:31;;;;;;;9.93;7.53;;;9.00;92.90;;;;;;5030902;28;20280;-62
2020/12/03 11:32:59;;;;;;;10.33;7.00;;;9.00;92.50;;;;;;5030459;28;20214;-62
2020/12/03 11:35:26;;;;;;;8.87;6.93;;;8.90;92.60;;;;;;5030442;28;20226;-61
2020/12/03 11:37:54;;;;;;;10.30;7.80;;;8.80;92.20;;;;;;5030281;28;20217;-61
2020/12/03 11:40:30;;;;;;;9.03;6.97;;;8.70;92.00;;;;;;5030920;28;20206;-62
2020/12/03 11:43:09;;;;;;;11.07;6.80;;;8.80;92.00;;;;;;5031021;28;20777;-62
2020/12/03 11:48:34;;;;;;;10.13;7.63;;;8.90;91.70;;;;;;5030682;28;20201;-62
2020/12/03 11:51:00;;;;;;;10.73;7.13;;;9.00;91.70;;;;;;5031250;28;20215;-61
2020/12/03 11:53:27;;;;;;;10.30;6.97;;;8.90;91.60;;;;;;5030786;28;20236;-62
2020/12/03 11:55:54;;;;;;;10.17;6.70;;;8.90;91.60;;;;;;5030746;28;20260;-62
2020/12/03 11:58:26;;;;;;;10.67;7.30;;;8.90;91.60;;;;;;5030231;28;20206;-61
2020/12/03 12:01:08;;;;;;;9.97;7.63;;;8.90;91.60;;;;;;5030647;28;20634;-61
2020/12/03 12:03:35;;;;;;;11.33;6.83;;;8.80;91.50;;;;;;5034311;28;20214;-62
2020/12/03 12:06:06;;;;;;;8.20;6.40;;;8.80;91.30;;;;;;5034835;28;20481;-62
2020/12/03 12:08:36;;;;;;;8.47;6.13;;;8.70;91.20;;;;;;5034363;28;20202;-62
2020/12/03 12:11:09;;;;;;;9.73;6.57;;;8.70;91.00;;;;;;5035019;28;20573;-62
2020/12/03 12:13:35;;;;;;;12.57;7.43;;;8.60;91.20;;;;;;5035703;28;20674;-62
2020/12/03 12:16:01;;;;;;;12.13;6.87;;;8.70;91.30;;;;;;5035190;28;20230;-62
2020/12/03 12:18:27;;;;;;;10.43;6.90;;;8.60;91.40;;;;;;5034596;28;20701;-63
2020/12/03 12:20:54;;;;;;;9.07;6.90;;;8.50;91.40;;;;;;5034806;28;20233;-62
2020/12/03 12:23:20;;;;;;;10.67;7.70;;;8.50;91.40;;;;;;5034849;28;20209;-61
2020/12/03 12:25:47;;;;;;;14.87;7.07;;;8.50;91.40;;;;;;5033952;28;20230;-61
2020/12/03 12:28:14;;;;;;;9.67;6.57;;;8.30;91.30;;;;;;5034393;28;20260;-61
2020/12/03 12:30:40;;;;;;;9.67;6.27;;;8.20;91.50;;;;;;5035494;28;20284;-61
2020/12/03 12:33:06;;;;;;;7.60;6.10;;;8.20;91.90;;;;;;5034874;28;20221;-61
2020/12/03 12:35:33;;;;;;;14.13;6.63;;;8.20;91.50;;;;;;5034513;28;20229;-61
2020/12/03 12:38:00;;;;;;;7.40;6.00;;;8.10;91.70;;;;;;5035325;28;20233;-61
2020/12/03 12:40:26;;;;;;;9.67;6.17;;;8.20;91.70;;;;;;5035083;28;20666;-61
2020/12/03 12:42:52;;;;;;;10.20;6.27;;;8.30;91.40;;;;;;5035588;28;20485;-62
2020/12/03 12:45:19;;;;;;;8.23;6.33;;;8.30;91.20;;;;;;5035039;28;20586;-61
2020/12/03 12:47:47;;;;;;;7.93;5.67;;;8.30;91.20;;;;;;5034911;28;20305;-61
2020/12/03 12:50:13;;;;;;;8.27;5.60;;;8.30;91.00;;;;;;5035853;28;20441;-61
2020/12/03 12:52:40;;;;;;;8.93;5.47;;;8.20;91.00;;;;;;5035750;28;20594;-61
2020/12/03 12:55:07;;;;;;;8.17;6.07;;;8.20;91.00;;;;;;5035052;28;20238;-61
2020/12/03 12:57:33;;;;;;;8.43;5.60;;;8.30;91.20;;;;;;5035371;28;20202;-61
2020/12/03 12:59:59;;;;;;;6.77;5.33;;;8.30;90.80;;;;;;5034991;28;20292;-62
2020/12/03 13:02:25;;;;;;;10.40;5.77;;;8.30;90.80;;;;;;5034983;28;20213;-62
2020/12/03 13:04:51;;;;;;;9.07;5.93;;;8.40;91.00;;;;;;5034083;28;20856;-62